createdAt,value
2023-01-12T00:02:10.618Z,47.25
2023-01-12T00:04:40.889Z,46.00
2023-01-12T00:07:15.685Z,43.50
2023-01-12T00:09:45.848Z,43.10
2023-01-12T00:12:16.391Z,44.10
2023-01-12T00:14:46.926Z,44.70
2023-01-12T00:17:19.885Z,44.22
2023-01-12T00:19:50.002Z,39.42
2023-01-12T00:22:20.828Z,42.13
2023-01-12T00:24:51.610Z,42.80
2023-01-12T00:27:22.874Z,42.20
2023-01-12T00:29:53.585Z,41.65
2023-01-12T00:32:23.907Z,40.80
2023-01-12T00:34:54.423Z,45.92
2023-01-12T00:37:26.640Z,47.28
2023-01-12T00:40:02.631Z,43.25
2023-01-12T00:42:53.610Z,46.15
2023-01-12T00:45:24.298Z,47.22
2023-01-12T00:47:55.412Z,71.43
2023-01-12T00:50:25.599Z,88.97
2023-01-12T00:52:56.050Z,51.83
2023-01-12T00:55:26.123Z,41.45
2023-01-12T00:57:56.590Z,43.88
2023-01-12T01:00:27.133Z,42.03
2023-01-12T01:02:57.619Z,41.08
2023-01-12T01:05:27.660Z,41.72
2023-01-12T01:07:58.162Z,42.00
2023-01-12T01:10:28.267Z,40.95
2023-01-12T01:12:58.364Z,37.40
2023-01-12T01:15:28.729Z,36.17
2023-01-12T01:17:58.786Z,35.10
2023-01-12T01:20:28.767Z,53.17
2023-01-12T01:22:58.815Z,51.35
2023-01-12T01:25:28.878Z,38.88
2023-01-12T01:27:59.362Z,36.90
2023-01-12T01:30:30.067Z,38.65
2023-01-12T01:33:00.651Z,38.95
2023-01-12T01:35:31.112Z,41.25
2023-01-12T01:38:01.245Z,40.03
2023-01-12T01:40:32.105Z,39.28
2023-01-12T01:43:02.474Z,36.38
2023-01-12T01:45:33.291Z,34.05
2023-01-12T01:48:04.804Z,26.85
2023-01-12T01:50:37.853Z,23.38
2023-01-12T01:53:10.581Z,25.35
2023-01-12T01:56:00.890Z,24.60
2023-01-12T01:58:38.938Z,39.72
2023-01-12T02:01:09.798Z,31.08
2023-01-12T02:03:40.862Z,28.08
2023-01-12T02:06:11.617Z,23.40
2023-01-12T02:08:47.192Z,21.58
2023-01-12T02:11:37.684Z,22.95
2023-01-12T02:14:27.690Z,23.38
2023-01-12T02:17:03.140Z,24.70
2023-01-12T02:19:53.096Z,21.02
2023-01-12T02:22:43.103Z,19.92
2023-01-12T02:25:32.989Z,20.35
2023-01-12T02:28:22.758Z,22.40
2023-01-12T02:31:13.066Z,24.50
2023-01-12T02:33:49.970Z,30.13
2023-01-12T02:36:40.065Z,22.00
2023-01-12T02:39:29.703Z,20.98
2023-01-12T02:42:25.523Z,23.13
2023-01-12T02:45:04.502Z,20.95
2023-01-12T02:47:40.483Z,19.58
2023-01-12T02:50:12.654Z,19.35
2023-01-12T02:52:44.734Z,18.15
2023-01-12T02:55:17.005Z,18.10
2023-01-12T02:57:48.225Z,13.27
2023-01-12T03:00:20.813Z,13.38
2023-01-12T03:02:52.214Z,19.85
2023-01-12T03:05:29.186Z,14.25
2023-01-12T03:08:03.311Z,14.43
2023-01-12T03:10:38.594Z,16.88
2023-01-12T03:13:11.572Z,15.43
2023-01-12T03:15:44.475Z,16.23
2023-01-12T03:18:34.260Z,24.60
2023-01-12T03:21:09.479Z,27.40
2023-01-12T03:23:55.610Z,14.73
2023-01-12T03:26:29.277Z,19.20
2023-01-12T03:29:12.478Z,17.00
2023-01-12T03:31:43.289Z,15.55
2023-01-12T03:34:13.453Z,23.90
2023-01-12T03:36:51.278Z,15.38
2023-01-12T03:39:28.588Z,15.82
2023-01-12T03:42:18.285Z,16.13
2023-01-12T03:45:08.185Z,15.30
2023-01-12T03:47:39.538Z,17.77
2023-01-12T03:50:16.587Z,24.00
2023-01-12T03:52:48.669Z,23.83
2023-01-12T03:55:20.418Z,24.35
2023-01-12T03:57:51.487Z,15.38
2023-01-12T04:00:23.432Z,15.40
2023-01-12T04:03:04.657Z,15.00
2023-01-12T04:05:35.168Z,16.38
2023-01-12T04:08:05.695Z,14.20
2023-01-12T04:10:35.827Z,13.75
2023-01-12T04:13:06.329Z,16.63
2023-01-12T04:15:43.900Z,14.13
2023-01-12T04:18:14.767Z,19.50
2023-01-12T04:20:44.939Z,16.95
2023-01-12T04:23:15.452Z,15.85
2023-01-12T04:25:45.523Z,16.15
2023-01-12T04:28:18.531Z,16.05
2023-01-12T04:30:49.055Z,13.57
2023-01-12T04:33:19.507Z,17.20
2023-01-12T04:35:50.321Z,14.13
2023-01-12T04:38:21.123Z,11.27
2023-01-12T04:40:56.261Z,23.70
2023-01-12T04:43:26.286Z,24.52
2023-01-12T04:45:56.196Z,23.55
2023-01-12T04:48:27.026Z,11.85
2023-01-12T04:50:57.191Z,13.95
2023-01-12T04:53:28.319Z,15.93
2023-01-12T04:55:59.255Z,13.68
2023-01-12T04:58:30.295Z,12.32
2023-01-12T05:01:00.954Z,17.40
2023-01-12T05:03:31.687Z,29.65
2023-01-12T05:06:02.096Z,11.35
2023-01-12T05:08:51.956Z,14.48
2023-01-12T05:11:23.011Z,10.50
2023-01-12T05:13:53.510Z,11.75
2023-01-12T05:16:24.438Z,12.00
2023-01-12T05:18:55.898Z,17.52
2023-01-12T05:21:26.855Z,18.27
2023-01-12T05:23:57.659Z,12.25
2023-01-12T05:26:27.925Z,12.90
2023-01-12T05:28:58.436Z,12.07
2023-01-12T05:31:28.596Z,14.45
2023-01-12T05:33:59.391Z,15.85
2023-01-12T05:36:29.758Z,15.27
2023-01-12T05:39:01.225Z,14.93
2023-01-12T05:41:31.427Z,13.93
2023-01-12T05:44:01.831Z,13.98
2023-01-12T05:46:35.716Z,15.57
2023-01-12T05:49:05.763Z,15.30
2023-01-12T05:51:36.187Z,15.57
2023-01-12T05:54:07.420Z,15.95
2023-01-12T05:56:38.690Z,15.95
2023-01-12T05:59:08.850Z,15.20
2023-01-12T06:01:40.236Z,17.08
2023-01-12T06:04:10.811Z,15.68
2023-01-12T06:06:41.293Z,14.93
2023-01-12T06:09:11.749Z,14.55
2023-01-12T06:12:01.555Z,14.07
2023-01-12T06:14:31.701Z,14.00
2023-01-12T06:17:02.516Z,13.68
2023-01-12T06:19:33.539Z,12.27
2023-01-12T06:22:04.378Z,13.15
2023-01-12T06:24:34.538Z,12.90
2023-01-12T06:27:04.734Z,12.18
2023-01-12T06:29:35.279Z,12.32
2023-01-12T06:32:05.746Z,13.18
2023-01-12T06:34:37.109Z,12.75
2023-01-12T06:37:09.873Z,21.73
2023-01-12T06:39:39.996Z,18.70
2023-01-12T06:42:29.939Z,16.15
2023-01-12T06:45:01.564Z,13.10
2023-01-12T06:47:33.085Z,14.93
2023-01-12T06:50:03.432Z,14.65
2023-01-12T06:52:33.537Z,15.05
2023-01-12T06:55:03.592Z,17.27
2023-01-12T06:57:34.006Z,17.90
2023-01-12T07:00:04.648Z,17.73
2023-01-12T07:02:34.757Z,18.75
2023-01-12T07:05:05.118Z,20.92
2023-01-12T07:07:35.428Z,20.80
2023-01-12T07:10:06.309Z,20.27
2023-01-12T07:12:36.714Z,21.02
2023-01-12T07:15:06.963Z,21.10
2023-01-12T07:17:37.689Z,22.42
2023-01-12T07:20:08.133Z,21.00
2023-01-12T07:22:38.485Z,20.52
2023-01-12T07:25:08.814Z,18.52
2023-01-12T07:27:38.883Z,19.63
2023-01-12T07:30:09.666Z,17.75
2023-01-12T07:32:40.027Z,19.80
2023-01-12T07:35:10.302Z,16.48
2023-01-12T07:37:40.675Z,16.05
2023-01-12T07:40:11.584Z,13.55
2023-01-12T07:42:41.987Z,12.98
2023-01-12T07:45:12.728Z,14.50
2023-01-12T07:47:42.789Z,25.05
2023-01-12T07:50:13.256Z,13.52
2023-01-12T07:52:43.683Z,16.85
2023-01-12T07:55:13.784Z,13.68
2023-01-12T07:57:44.185Z,13.38
2023-01-12T08:00:14.882Z,12.23
2023-01-12T08:02:55.241Z,11.95
2023-01-12T08:05:25.428Z,10.93
2023-01-12T08:07:55.829Z,11.93
2023-01-12T08:10:26.171Z,12.38
2023-01-12T08:12:56.239Z,11.43
2023-01-12T08:15:28.032Z,10.80
2023-01-12T08:18:03.342Z,11.07
2023-01-12T08:20:36.283Z,10.70
2023-01-12T08:23:11.588Z,11.50
2023-01-12T08:25:46.092Z,12.63
2023-01-12T08:28:20.292Z,11.73
2023-01-12T08:30:51.777Z,12.63
2023-01-12T08:33:22.830Z,11.98
2023-01-12T08:35:53.750Z,11.90
2023-01-12T08:38:24.676Z,11.90
2023-01-12T08:41:14.659Z,13.02
2023-01-12T08:44:04.332Z,11.82
2023-01-12T08:46:37.605Z,11.75
2023-01-12T08:49:11.267Z,11.55
2023-01-12T08:51:41.434Z,14.25
2023-01-12T08:54:12.981Z,12.75
2023-01-12T08:56:43.196Z,13.00
2023-01-12T08:59:14.433Z,13.65
2023-01-12T09:01:45.460Z,12.82
2023-01-12T09:04:15.950Z,13.07
2023-01-12T09:06:47.131Z,12.85
2023-01-12T09:09:21.813Z,21.73
2023-01-12T09:11:52.977Z,17.00
2023-01-12T09:14:23.337Z,17.25
2023-01-12T09:16:54.721Z,17.48
2023-01-12T09:19:25.112Z,17.85
2023-01-12T09:21:55.086Z,18.00
2023-01-12T09:24:25.381Z,18.70
2023-01-12T09:26:55.807Z,16.92
2023-01-12T09:29:26.628Z,19.55
2023-01-12T09:31:57.218Z,18.20
2023-01-12T09:34:28.103Z,18.55
2023-01-12T09:36:58.966Z,18.80
2023-01-12T09:39:30.076Z,18.30
2023-01-12T09:42:21.064Z,18.38
2023-01-12T09:45:12.141Z,17.55
2023-01-12T09:47:46.207Z,17.02
2023-01-12T09:50:18.720Z,16.08
2023-01-12T09:52:57.223Z,16.65
2023-01-12T09:55:28.654Z,17.33
2023-01-12T09:58:18.238Z,17.02
2023-01-12T10:00:58.377Z,16.63
2023-01-12T10:03:33.192Z,16.98
2023-01-12T10:06:03.666Z,16.10
2023-01-12T10:08:53.585Z,17.15
2023-01-12T10:11:43.507Z,14.98
2023-01-12T10:14:27.199Z,16.20
2023-01-12T10:17:17.729Z,15.43
2023-01-12T10:20:08.682Z,16.38
2023-01-12T10:22:58.645Z,15.95
2023-01-12T10:25:33.687Z,16.88
2023-01-12T10:28:09.027Z,16.85
2023-01-12T10:30:40.770Z,17.88
2023-01-12T10:33:15.365Z,17.55
2023-01-12T10:36:05.322Z,18.27
2023-01-12T10:38:37.714Z,19.90
2023-01-12T10:41:21.180Z,20.23
2023-01-12T10:44:10.877Z,20.02
2023-01-12T10:46:41.141Z,20.85
2023-01-12T10:49:31.061Z,21.35
2023-01-12T10:52:02.864Z,23.48
2023-01-12T10:54:36.954Z,31.20
2023-01-12T10:57:26.362Z,75.53
2023-01-12T11:00:00.128Z,79.43
2023-01-12T11:02:30.885Z,54.10
2023-01-12T11:05:01.039Z,35.72
2023-01-12T11:07:31.844Z,40.58
2023-01-12T11:10:22.167Z,51.47
2023-01-12T11:13:02.705Z,47.42
2023-01-12T11:15:37.183Z,41.28
2023-01-12T11:18:27.181Z,51.55
2023-01-12T11:21:02.686Z,45.13
2023-01-12T11:23:40.276Z,27.77
2023-01-12T11:26:21.415Z,31.98
2023-01-12T11:28:55.247Z,28.20
2023-01-12T11:31:28.518Z,25.52
2023-01-12T11:34:01.556Z,24.23
2023-01-12T11:36:41.229Z,20.08
2023-01-12T11:39:16.034Z,19.58
2023-01-12T11:42:07.455Z,22.58
2023-01-12T11:44:57.461Z,24.00
2023-01-12T11:47:29.661Z,27.23
2023-01-12T11:50:10.265Z,28.33
2023-01-12T11:52:40.458Z,35.40
2023-01-12T11:55:18.210Z,35.35
2023-01-12T11:57:55.833Z,31.55
2023-01-12T12:00:33.895Z,29.60
2023-01-12T12:03:20.731Z,29.75
2023-01-12T12:06:04.222Z,26.13
2023-01-12T12:08:53.863Z,29.60
2023-01-12T12:11:37.362Z,30.48
2023-01-12T12:14:30.456Z,26.83
2023-01-12T12:17:20.733Z,28.70
2023-01-12T12:20:10.534Z,26.25
2023-01-12T12:22:49.752Z,29.08
2023-01-12T12:25:28.687Z,31.15
2023-01-12T12:28:05.847Z,35.63
2023-01-12T12:30:50.696Z,31.73
2023-01-12T12:33:39.172Z,31.00
2023-01-12T12:36:28.886Z,35.13
2023-01-12T12:39:18.531Z,41.55
2023-01-12T12:42:28.083Z,47.05
2023-01-12T12:45:17.922Z,52.83
2023-01-12T12:48:06.290Z,36.20
2023-01-12T12:50:45.600Z,36.85
2023-01-12T12:53:37.037Z,41.60
2023-01-12T12:56:11.701Z,46.72
2023-01-12T12:58:43.592Z,475.85
2023-01-12T13:01:33.669Z,103.47
2023-01-12T13:04:09.771Z,60.00
2023-01-12T13:06:41.336Z,48.67
2023-01-12T13:09:31.643Z,50.85
2023-01-12T13:12:21.339Z,45.60
2023-01-12T13:15:10.940Z,40.50
2023-01-12T13:17:45.530Z,45.28
2023-01-12T13:20:35.552Z,47.65
2023-01-12T13:23:07.483Z,48.60
2023-01-12T13:25:55.105Z,47.75
2023-01-12T13:28:25.621Z,45.67
2023-01-12T13:30:57.418Z,46.35
2023-01-12T13:33:31.382Z,99.70
2023-01-12T13:36:03.094Z,62.05
2023-01-12T13:38:53.094Z,58.05
2023-01-12T13:41:47.979Z,58.67
2023-01-12T13:44:23.549Z,60.17
2023-01-12T13:46:55.821Z,58.47
2023-01-12T13:49:31.291Z,51.83
2023-01-12T13:52:06.623Z,51.30
2023-01-12T13:54:37.596Z,50.03
2023-01-12T13:57:17.719Z,49.08
2023-01-12T14:00:10.752Z,47.90
2023-01-12T14:02:44.175Z,45.10
2023-01-12T14:05:24.731Z,46.42
2023-01-12T14:08:14.206Z,44.75
2023-01-12T14:10:58.930Z,44.85
2023-01-12T14:13:38.840Z,43.58
2023-01-12T14:16:33.591Z,41.25
2023-01-12T14:19:04.451Z,41.58
2023-01-12T14:21:36.447Z,39.42
2023-01-12T14:24:27.131Z,40.70
2023-01-12T14:26:57.581Z,41.58
2023-01-12T14:29:27.969Z,38.28
2023-01-12T14:31:58.488Z,86.30
2023-01-12T14:34:37.184Z,40.67
2023-01-12T14:37:12.362Z,41.42
2023-01-12T14:39:43.408Z,56.05
2023-01-12T14:42:40.158Z,40.80
2023-01-12T14:45:43.040Z,40.90
2023-01-12T14:48:33.647Z,37.40
2023-01-12T14:51:23.633Z,59.28
2023-01-12T14:54:01.772Z,43.85
2023-01-12T14:56:36.393Z,42.58
2023-01-12T14:59:11.994Z,38.78
2023-01-12T15:01:42.497Z,57.63
2023-01-12T15:04:23.758Z,42.75
2023-01-12T15:07:06.177Z,40.88
2023-01-12T15:09:38.929Z,43.22
2023-01-12T15:12:29.018Z,43.38
2023-01-12T15:15:19.019Z,40.25
2023-01-12T15:18:09.415Z,43.92
2023-01-12T15:21:01.137Z,40.35
2023-01-12T15:23:55.244Z,39.92
2023-01-12T15:26:25.703Z,40.15
2023-01-12T15:28:56.197Z,40.17
2023-01-12T15:31:35.372Z,40.33
2023-01-12T15:34:06.539Z,42.15
2023-01-12T15:36:36.976Z,46.35
2023-01-12T15:39:07.850Z,43.67
2023-01-12T15:41:58.245Z,44.67
2023-01-12T15:44:28.278Z,42.83
2023-01-12T15:46:58.703Z,41.78
2023-01-12T15:49:28.990Z,38.22
2023-01-12T15:51:59.560Z,39.67
2023-01-12T15:54:30.139Z,37.85
2023-01-12T15:57:01.397Z,41.08
2023-01-12T15:59:31.515Z,43.45
2023-01-12T16:02:01.938Z,43.88
2023-01-12T16:04:47.553Z,42.30
2023-01-12T16:07:17.423Z,42.42
2023-01-12T16:09:49.236Z,41.97
2023-01-12T16:12:20.103Z,47.65
2023-01-12T16:14:51.540Z,361.45
2023-01-12T16:17:21.941Z,179.02
2023-01-12T16:19:52.427Z,59.17
2023-01-12T16:22:26.766Z,43.40
2023-01-12T16:24:58.264Z,45.35
2023-01-12T16:27:29.658Z,47.75
2023-01-12T16:30:00.090Z,54.72
2023-01-12T16:32:30.263Z,52.03
2023-01-12T16:35:00.367Z,51.92
2023-01-12T16:37:34.584Z,49.30
2023-01-12T16:40:04.875Z,45.15
2023-01-12T16:42:35.302Z,47.15
2023-01-12T16:45:05.425Z,46.53
2023-01-12T16:47:35.925Z,66.97
2023-01-12T16:50:06.689Z,51.15
2023-01-12T16:52:36.798Z,66.43
2023-01-12T16:55:07.011Z,59.03
2023-01-12T16:57:37.571Z,62.70
2023-01-12T17:00:07.971Z,60.53
2023-01-12T17:02:38.670Z,62.17
2023-01-12T17:05:10.034Z,56.80
2023-01-12T17:07:40.561Z,56.38
2023-01-12T17:10:11.433Z,57.47
2023-01-12T17:12:50.671Z,57.70
2023-01-12T17:15:26.075Z,58.35
2023-01-12T17:17:57.078Z,57.33
2023-01-12T17:20:27.857Z,55.42
2023-01-12T17:22:59.267Z,54.65
2023-01-12T17:25:30.012Z,61.13
2023-01-12T17:28:00.592Z,61.22
2023-01-12T17:30:31.209Z,65.18
2023-01-12T17:33:04.564Z,71.32
2023-01-12T17:35:37.336Z,83.40
2023-01-12T17:38:07.899Z,76.50
2023-01-12T17:40:39.152Z,65.97
2023-01-12T17:43:14.618Z,61.50
2023-01-12T17:45:45.566Z,57.40
2023-01-12T17:48:15.745Z,55.15
2023-01-12T17:50:46.424Z,53.42
2023-01-12T17:53:18.856Z,63.15
2023-01-12T17:55:50.410Z,212.13
2023-01-12T17:58:21.571Z,76.35
2023-01-12T18:00:51.715Z,60.10
2023-01-12T18:03:21.830Z,54.70
2023-01-12T18:06:02.923Z,59.47
2023-01-12T18:08:36.323Z,53.58
2023-01-12T18:11:07.779Z,56.42
2023-01-12T18:13:39.465Z,59.25
2023-01-12T18:16:12.183Z,55.30
2023-01-12T18:18:43.699Z,56.83
2023-01-12T18:21:15.623Z,58.53
2023-01-12T18:23:45.791Z,53.67
2023-01-12T18:26:25.285Z,56.25
2023-01-12T18:28:56.702Z,55.60
2023-01-12T18:31:28.065Z,54.83
2023-01-12T18:34:05.879Z,54.22
2023-01-12T18:36:40.419Z,53.35
2023-01-12T18:39:11.308Z,56.08
2023-01-12T18:42:01.107Z,56.60
2023-01-12T18:44:32.833Z,55.00
2023-01-12T18:47:22.975Z,55.10
2023-01-12T18:49:58.926Z,56.28
2023-01-12T18:52:48.860Z,56.50
2023-01-12T18:55:19.980Z,56.80
2023-01-12T18:57:50.059Z,58.72
2023-01-12T19:00:20.354Z,57.63
2023-01-12T19:02:50.673Z,58.05
2023-01-12T19:05:24.720Z,58.97
2023-01-12T19:08:14.505Z,57.38
2023-01-12T19:10:44.930Z,62.10
2023-01-12T19:13:34.579Z,57.00
2023-01-12T19:16:24.660Z,57.38
2023-01-12T19:18:54.770Z,60.13
2023-01-12T19:21:44.457Z,62.67
2023-01-12T19:24:34.399Z,72.60
2023-01-12T19:27:24.511Z,71.28
2023-01-12T19:29:54.869Z,70.82
2023-01-12T19:32:25.120Z,74.00
2023-01-12T19:35:02.287Z,82.82
2023-01-12T19:37:36.757Z,74.65
2023-01-12T19:40:20.433Z,74.25
2023-01-12T19:43:10.483Z,79.78
2023-01-12T19:45:42.883Z,71.03
2023-01-12T19:48:14.660Z,75.72
2023-01-12T19:50:46.365Z,85.80
2023-01-12T19:53:19.996Z,75.70
2023-01-12T19:55:54.513Z,80.63
2023-01-12T19:58:25.056Z,85.90
2023-01-12T20:00:57.198Z,78.38
2023-01-12T20:03:27.743Z,88.88
2023-01-12T20:05:57.820Z,90.93
2023-01-12T20:08:28.833Z,82.30
2023-01-12T20:10:59.953Z,83.63
2023-01-12T20:13:30.315Z,82.68
2023-01-12T20:16:00.411Z,86.63
2023-01-12T20:18:30.924Z,86.10
2023-01-12T20:21:02.485Z,86.75
2023-01-12T20:23:33.337Z,95.40
2023-01-12T20:26:03.615Z,90.03
2023-01-12T20:28:34.432Z,130.43
2023-01-12T20:31:04.564Z,109.75
2023-01-12T20:33:34.639Z,103.72
2023-01-12T20:36:05.777Z,105.35
2023-01-12T20:38:36.140Z,120.30
2023-01-12T20:41:09.784Z,104.55
2023-01-12T20:43:40.049Z,106.35
2023-01-12T20:46:10.921Z,107.78
2023-01-12T20:48:42.946Z,120.63
2023-01-12T20:51:14.199Z,124.00
2023-01-12T20:53:44.990Z,111.50
2023-01-12T20:56:15.574Z,95.28
2023-01-12T20:58:45.671Z,118.65
2023-01-12T21:01:17.267Z,115.47
2023-01-12T21:03:48.088Z,105.43
2023-01-12T21:06:19.710Z,96.90
2023-01-12T21:08:50.033Z,101.05
2023-01-12T21:11:21.802Z,111.70
2023-01-12T21:13:52.301Z,110.55
2023-01-12T21:16:22.688Z,122.63
2023-01-12T21:18:54.737Z,113.25
2023-01-12T21:21:25.272Z,111.85
2023-01-12T21:23:55.681Z,97.35
2023-01-12T21:26:25.769Z,98.38
2023-01-12T21:28:55.632Z,98.63
2023-01-12T21:31:25.753Z,107.45
2023-01-12T21:33:56.123Z,86.72
2023-01-12T21:36:26.476Z,89.10
2023-01-12T21:38:56.896Z,80.63
2023-01-12T21:41:28.012Z,82.00
2023-01-12T21:43:58.009Z,84.28
2023-01-12T21:46:29.811Z,78.45
2023-01-12T21:49:00.174Z,73.57
2023-01-12T21:51:37.383Z,82.18
2023-01-12T21:54:07.793Z,82.97
2023-01-12T21:56:37.892Z,79.75
2023-01-12T21:59:08.313Z,81.78
2023-01-12T22:01:38.714Z,78.32
2023-01-12T22:04:08.901Z,79.82
2023-01-12T22:06:39.752Z,85.20
2023-01-12T22:09:10.065Z,76.15
2023-01-12T22:11:40.206Z,79.55
2023-01-12T22:14:10.752Z,77.93
2023-01-12T22:16:41.220Z,77.00
2023-01-12T22:19:11.732Z,79.63
2023-01-12T22:21:42.577Z,73.55
2023-01-12T22:24:13.343Z,78.88
2023-01-12T22:26:43.675Z,74.75
2023-01-12T22:29:14.533Z,83.32
2023-01-12T22:31:44.633Z,75.57
2023-01-12T22:34:15.561Z,81.32
2023-01-12T22:36:45.577Z,74.13
2023-01-12T22:39:15.635Z,75.75
2023-01-12T22:41:45.719Z,71.60
2023-01-12T22:44:16.110Z,73.10
2023-01-12T22:46:46.238Z,77.47
2023-01-12T22:49:16.184Z,75.28
2023-01-12T22:51:47.133Z,72.65
2023-01-12T22:54:17.284Z,72.75
2023-01-12T22:56:47.620Z,74.70
2023-01-12T22:59:18.106Z,73.28
2023-01-12T23:01:48.217Z,70.90
2023-01-12T23:04:18.176Z,67.20
2023-01-12T23:06:47.952Z,66.57
2023-01-12T23:09:18.006Z,64.22
2023-01-12T23:11:48.173Z,68.40
2023-01-12T23:14:18.525Z,82.95
2023-01-12T23:16:48.929Z,85.47
2023-01-12T23:19:19.275Z,76.53
2023-01-12T23:21:50.281Z,76.90
2023-01-12T23:24:20.551Z,74.68
2023-01-12T23:26:50.901Z,72.97
2023-01-12T23:29:20.993Z,67.97
2023-01-12T23:31:51.452Z,67.18
2023-01-12T23:34:21.563Z,71.57
2023-01-12T23:36:52.323Z,69.38
2023-01-12T23:39:22.738Z,66.80
2023-01-12T23:41:53.103Z,67.80
2023-01-12T23:44:23.125Z,69.25
2023-01-12T23:46:52.868Z,71.85
2023-01-12T23:49:22.885Z,74.65
2023-01-12T23:51:53.447Z,70.43
2023-01-12T23:54:23.821Z,72.03
2023-01-12T23:56:55.046Z,70.25
2023-01-12T23:59:25.145Z,73.70
